sensor_id;sensor_type;location;lat;lon;timestamp;pressure;altitude;pressure_sealevel;temperature;humidity
33845;BME280;20145;43.118;25.694;2023-04-01T00:00:20;98530.81;;;11.34;72.31
33845;BME280;20145;43.118;25.694;2023-04-01T00:02:46;98522.16;;;11.35;72.16
33845;BME280;20145;43.118;25.694;2023-04-01T00:05:11;98510.75;;;11.43;71.85
33845;BME280;20145;43.118;25.694;2023-04-01T00:07:40;98508.78;;;11.51;71.21
33845;BME280;20145;43.118;25.694;2023-04-01T00:10:07;98500.88;;;11.55;71.91
33845;BME280;20145;43.118;25.694;2023-04-01T00:12:34;98494.78;;;11.58;71.40
33845;BME280;20145;43.118;25.694;2023-04-01T00:14:59;98486.94;;;11.61;71.73
33845;BME280;20145;43.118;25.694;2023-04-01T00:17:25;98483.50;;;11.60;70.81
33845;BME280;20145;43.118;25.694;2023-04-01T00:19:51;98489.78;;;11.53;71.13
33845;BME280;20145;43.118;25.694;2023-04-01T00:22:17;98494.78;;;11.58;70.66
33845;BME280;20145;43.118;25.694;2023-04-01T00:24:42;98496.59;;;11.56;70.06
33845;BME280;20145;43.118;25.694;2023-04-01T00:27:08;98484.50;;;11.56;70.49
33845;BME280;20145;43.118;25.694;2023-04-01T00:29:34;98493.81;;;11.62;69.82
33845;BME280;20145;43.118;25.694;2023-04-01T00:32:01;98482.56;;;11.63;70.16
33845;BME280;20145;43.118;25.694;2023-04-01T00:34:26;98456.94;;;11.57;70.92
33845;BME280;20145;43.118;25.694;2023-04-01T00:36:52;98467.56;;;11.74;72.59
33845;BME280;20145;43.118;25.694;2023-04-01T00:39:20;98425.63;;;11.39;71.55
33845;BME280;20145;43.118;25.694;2023-04-01T00:41:46;98419.66;;;11.37;71.12
33845;BME280;20145;43.118;25.694;2023-04-01T00:44:19;98459.50;;;11.57;71.01
33845;BME280;20145;43.118;25.694;2023-04-01T00:46:45;98460.41;;;11.56;71.89
33845;BME280;20145;43.118;25.694;2023-04-01T00:49:10;98451.06;;;11.52;73.47
33845;BME280;20145;43.118;25.694;2023-04-01T00:51:37;98462.31;;;11.49;71.96
33845;BME280;20145;43.118;25.694;2023-04-01T00:54:04;98448.78;;;11.43;72.16
33845;BME280;20145;43.118;25.694;2023-04-01T00:56:37;98448.03;;;11.39;72.66
33845;BME280;20145;43.118;25.694;2023-04-01T00:59:11;98435.44;;;11.28;71.93
33845;BME280;20145;43.118;25.694;2023-04-01T01:01:38;98442.31;;;11.28;73.11
33845;BME280;20145;43.118;25.694;2023-04-01T01:04:05;98441.34;;;11.32;73.40
33845;BME280;20145;43.118;25.694;2023-04-01T01:06:45;98430.13;;;11.33;72.95
33845;BME280;20145;43.118;25.694;2023-04-01T01:12:33;98416.88;;;11.44;71.29
33845;BME280;20145;43.118;25.694;2023-04-01T01:18:38;98425.22;;;11.52;71.28
33845;BME280;20145;43.118;25.694;2023-04-01T01:21:16;98426.16;;;11.49;71.90
33845;BME280;20145;43.118;25.694;2023-04-01T01:36:48;98395.59;;;11.90;68.91
33845;BME280;20145;43.118;25.694;2023-04-01T01:39:16;98395.84;;;12.08;67.56
33845;BME280;20145;43.118;25.694;2023-04-01T01:41:43;98385.06;;;12.45;66.16
33845;BME280;20145;43.118;25.694;2023-04-01T01:44:12;98389.59;;;12.85;64.69
33845;BME280;20145;43.118;25.694;2023-04-01T01:46:41;98394.38;;;13.18;63.75
33845;BME280;20145;43.118;25.694;2023-04-01T01:49:10;98398.25;;;13.30;63.60
33845;BME280;20145;43.118;25.694;2023-04-01T01:51:37;98387.44;;;13.42;62.34
33845;BME280;20145;43.118;25.694;2023-04-01T01:54:02;98392.31;;;13.50;61.67
33845;BME280;20145;43.118;25.694;2023-04-01T01:56:29;98387.44;;;13.63;61.41
33845;BME280;20145;43.118;25.694;2023-04-01T01:59:05;98389.59;;;13.73;61.00
33845;BME280;20145;43.118;25.694;2023-04-01T02:01:35;98402.13;;;13.84;60.77
33845;BME280;20145;43.118;25.694;2023-04-01T02:04:04;98401.88;;;13.90;60.81
33845;BME280;20145;43.118;25.694;2023-04-01T02:06:32;98397.47;;;13.92;61.63
33845;BME280;20145;43.118;25.694;2023-04-01T02:09:05;98399.53;;;13.84;61.41
33845;BME280;20145;43.118;25.694;2023-04-01T02:12:12;98393.28;;;13.68;62.01
33845;BME280;20145;43.118;25.694;2023-04-01T02:14:50;98388.81;;;13.51;61.42
33845;BME280;20145;43.118;25.694;2023-04-01T02:17:22;98390.25;;;13.36;62.37
33845;BME280;20145;43.118;25.694;2023-04-01T02:22:18;98375.94;;;13.04;63.24
33845;BME280;20145;43.118;25.694;2023-04-01T02:24:45;98373.22;;;12.85;63.56
33845;BME280;20145;43.118;25.694;2023-04-01T02:27:12;98374.41;;;12.76;64.13
33845;BME280;20145;43.118;25.694;2023-04-01T02:29:38;98367.22;;;12.61;64.46
33845;BME280;20145;43.118;25.694;2023-04-01T02:32:05;98370.81;;;12.57;64.96
33845;BME280;20145;43.118;25.694;2023-04-01T02:34:31;98361.88;;;12.42;65.28
33845;BME280;20145;43.118;25.694;2023-04-01T02:36:57;98359.31;;;12.42;65.98
33845;BME280;20145;43.118;25.694;2023-04-01T02:39:23;98352.63;;;12.36;65.70
33845;BME280;20145;43.118;25.694;2023-04-01T02:41:52;98353.44;;;12.37;65.46
33845;BME280;20145;43.118;25.694;2023-04-01T02:44:18;98345.63;;;12.38;65.38
33845;BME280;20145;43.118;25.694;2023-04-01T02:46:43;98346.28;;;12.43;65.48
33845;BME280;20145;43.118;25.694;2023-04-01T02:49:09;98344.63;;;12.42;66.69
33845;BME280;20145;43.118;25.694;2023-04-01T02:51:35;98335.94;;;12.43;67.39
33845;BME280;20145;43.118;25.694;2023-04-01T02:54:00;98340.97;;;12.48;66.61
33845;BME280;20145;43.118;25.694;2023-04-01T02:56:26;98343.31;;;12.54;65.92
33845;BME280;20145;43.118;25.694;2023-04-01T02:58:53;98338.97;;;12.78;63.93
33845;BME280;20145;43.118;25.694;2023-04-01T03:01:20;98339.31;;;12.91;64.68
33845;BME280;20145;43.118;25.694;2023-04-01T03:03:46;98337.91;;;13.06;63.46
33845;BME280;20145;43.118;25.694;2023-04-01T03:06:14;98342.66;;;13.16;63.41
33845;BME280;20145;43.118;25.694;2023-04-01T03:08:41;98329.34;;;13.26;61.77
33845;BME280;20145;43.118;25.694;2023-04-01T03:11:07;98325.00;;;13.26;62.70
33845;BME280;20145;43.118;25.694;2023-04-01T03:13:33;98340.06;;;13.38;63.13
33845;BME280;20145;43.118;25.694;2023-04-01T03:15:59;98310.97;;;13.32;61.90
33845;BME280;20145;43.118;25.694;2023-04-01T03:18:25;98321.03;;;13.39;61.91
33845;BME280;20145;43.118;25.694;2023-04-01T03:20:50;98321.88;;;13.40;60.97
33845;BME280;20145;43.118;25.694;2023-04-01T03:23:16;98322.66;;;13.42;61.53
33845;BME280;20145;43.118;25.694;2023-04-01T03:25:45;98337.75;;;13.53;62.23
33845;BME280;20145;43.118;25.694;2023-04-01T03:28:10;98335.16;;;13.53;60.84
33845;BME280;20145;43.118;25.694;2023-04-01T03:30:37;98341.75;;;13.60;61.26
33845;BME280;20145;43.118;25.694;2023-04-01T03:33:03;98328.75;;;13.61;61.76
33845;BME280;20145;43.118;25.694;2023-04-01T03:35:28;98306.66;;;13.53;59.95
33845;BME280;20145;43.118;25.694;2023-04-01T03:37:54;98328.75;;;13.61;61.53
33845;BME280;20145;43.118;25.694;2023-04-01T03:40:21;98325.56;;;13.55;61.50
33845;BME280;20145;43.118;25.694;2023-04-01T03:42:46;98334.91;;;13.59;62.31
33845;BME280;20145;43.118;25.694;2023-04-01T03:45:12;98330.75;;;13.55;60.57
33845;BME280;20145;43.118;25.694;2023-04-01T03:47:38;98328.94;;;13.57;61.33
33845;BME280;20145;43.118;25.694;2023-04-01T03:50:05;98326.44;;;13.55;60.20
33845;BME280;20145;43.118;25.694;2023-04-01T03:52:31;98330.88;;;13.52;60.52
33845;BME280;20145;43.118;25.694;2023-04-01T03:54:57;98328.38;;;13.50;61.19
33845;BME280;20145;43.118;25.694;2023-04-01T03:57:23;98332.63;;;13.51;60.37
33845;BME280;20145;43.118;25.694;2023-04-01T03:59:48;98345.44;;;13.54;62.18
33845;BME280;20145;43.118;25.694;2023-04-01T04:02:14;98330.75;;;13.55;60.64
33845;BME280;20145;43.118;25.694;2023-04-01T04:04:39;98340.09;;;13.59;61.57
33845;BME280;20145;43.118;25.694;2023-04-01T04:07:05;98325.13;;;13.66;60.20
33845;BME280;20145;43.118;25.694;2023-04-01T04:09:31;98321.75;;;13.64;60.60
33845;BME280;20145;43.118;25.694;2023-04-01T04:11:57;98325.75;;;13.71;61.33
33845;BME280;20145;43.118;25.694;2023-04-01T04:14:23;98320.00;;;13.64;60.42
33845;BME280;20145;43.118;25.694;2023-04-01T04:16:48;98323.50;;;13.63;61.83
33845;BME280;20145;43.118;25.694;2023-04-01T04:19:14;98320.84;;;13.65;60.17
33845;BME280;20145;43.118;25.694;2023-04-01T04:21:40;98314.09;;;13.60;61.06
33845;BME280;20145;43.118;25.694;2023-04-01T04:24:06;98310.88;;;13.55;61.90
33845;BME280;20145;43.118;25.694;2023-04-01T04:26:32;98308.41;;;13.52;62.00
33845;BME280;20145;43.118;25.694;2023-04-01T04:28:58;98321.03;;;13.60;60.80
33845;BME280;20145;43.118;25.694;2023-04-01T04:31:24;98324.94;;;13.70;61.17
33845;BME280;20145;43.118;25.694;2023-04-01T04:33:51;98323.88;;;13.74;61.01
33845;BME280;20145;43.118;25.694;2023-04-01T04:36:17;98321.88;;;13.81;60.65
33845;BME280;20145;43.118;25.694;2023-04-01T04:38:43;98325.19;;;13.84;60.21
33845;BME280;20145;43.118;25.694;2023-04-01T04:41:10;98325.63;;;13.94;60.45
33845;BME280;20145;43.118;25.694;2023-04-01T04:43:37;98336.06;;;13.93;60.58
33845;BME280;20145;43.118;25.694;2023-04-01T04:46:07;98306.97;;;13.86;60.13
33845;BME280;20145;43.118;25.694;2023-04-01T04:48:33;98327.78;;;14.05;59.79
33845;BME280;20145;43.118;25.694;2023-04-01T04:50:58;98329.03;;;14.15;59.87
33845;BME280;20145;43.118;25.694;2023-04-01T04:53:24;98323.66;;;14.20;58.48
33845;BME280;20145;43.118;25.694;2023-04-01T04:55:50;98315.69;;;14.24;57.71
33845;BME280;20145;43.118;25.694;2023-04-01T04:58:16;98313.81;;;14.26;58.73
33845;BME280;20145;43.118;25.694;2023-04-01T05:00:42;98298.00;;;14.14;58.55
33845;BME280;20145;43.118;25.694;2023-04-01T05:03:09;98307.53;;;14.32;58.45
33845;BME280;20145;43.118;25.694;2023-04-01T05:05:35;98312.19;;;14.44;58.15
33845;BME280;20145;43.118;25.694;2023-04-01T05:08:01;98313.69;;;14.48;58.04
33845;BME280;20145;43.118;25.694;2023-04-01T05:10:27;98293.09;;;14.45;58.68
33845;BME280;20145;43.118;25.694;2023-04-01T05:12:52;98300.34;;;14.58;57.03
33845;BME280;20145;43.118;25.694;2023-04-01T05:15:18;98300.59;;;14.70;57.24
33845;BME280;20145;43.118;25.694;2023-04-01T05:17:43;98294.22;;;14.78;57.76
33845;BME280;20145;43.118;25.694;2023-04-01T05:20:12;98295.94;;;14.96;55.95
33845;BME280;20145;43.118;25.694;2023-04-01T05:22:38;98299.44;;;14.95;56.95
33845;BME280;20145;43.118;25.694;2023-04-01T05:25:04;98284.84;;;14.92;56.10
33845;BME280;20145;43.118;25.694;2023-04-01T05:27:30;98283.72;;;14.98;56.01
33845;BME280;20145;43.118;25.694;2023-04-01T05:29:58;98296.25;;;15.07;56.09
33845;BME280;20145;43.118;25.694;2023-04-01T05:32:23;98298.50;;;15.15;56.22
33845;BME280;20145;43.118;25.694;2023-04-01T05:34:52;98289.97;;;15.30;56.50
33845;BME280;20145;43.118;25.694;2023-04-01T05:37:18;98299.34;;;15.50;56.74
33845;BME280;20145;43.118;25.694;2023-04-01T05:39:44;98292.03;;;15.41;54.52
33845;BME280;20145;43.118;25.694;2023-04-01T05:42:10;98285.56;;;15.66;55.74
33845;BME280;20145;43.118;25.694;2023-04-01T05:44:35;98287.56;;;15.95;53.50
33845;BME280;20145;43.118;25.694;2023-04-01T05:47:02;98279.56;;;16.16;53.75
33845;BME280;20145;43.118;25.694;2023-04-01T05:49:28;98278.38;;;16.37;54.22
33845;BME280;20145;43.118;25.694;2023-04-01T05:51:53;98277.47;;;16.54;53.12
33845;BME280;20145;43.118;25.694;2023-04-01T05:54:19;98275.53;;;16.73;52.03
33845;BME280;20145;43.118;25.694;2023-04-01T05:56:45;98276.56;;;16.87;51.38
33845;BME280;20145;43.118;25.694;2023-04-01T05:59:11;98284.28;;;16.72;50.32
33845;BME280;20145;43.118;25.694;2023-04-01T06:01:37;98277.03;;;16.46;51.68
33845;BME280;20145;43.118;25.694;2023-04-01T06:04:03;98279.59;;;16.79;50.88
33845;BME280;20145;43.118;25.694;2023-04-01T06:06:30;98277.13;;;17.08;50.52
33845;BME280;20145;43.118;25.694;2023-04-01T06:09:04;98281.38;;;17.25;50.70
33845;BME280;20145;43.118;25.694;2023-04-01T06:23:28;98279.81;;;17.06;49.85
33845;BME280;20145;43.118;25.694;2023-04-01T06:34:59;98280.94;;;16.86;52.49
33845;BME280;20145;43.118;25.694;2023-04-01T06:38:11;98279.50;;;16.97;50.96
33845;BME280;20145;43.118;25.694;2023-04-01T06:40:30;98275.19;;;17.11;51.14
33845;BME280;20145;43.118;25.694;2023-04-01T06:54:04;98272.97;;;17.50;50.61
33845;BME280;20145;43.118;25.694;2023-04-01T06:56:32;98278.88;;;17.68;50.86
33845;BME280;20145;43.118;25.694;2023-04-01T06:59:15;98278.19;;;17.80;52.66
33845;BME280;20145;43.118;25.694;2023-04-01T07:01:49;98282.19;;;17.86;53.78
33845;BME280;20145;43.118;25.694;2023-04-01T07:04:32;98265.78;;;17.83;53.71
33845;BME280;20145;43.118;25.694;2023-04-01T07:09:49;98282.63;;;17.78;52.98
33845;BME280;20145;43.118;25.694;2023-04-01T07:14:58;98273.56;;;17.69;55.72
33845;BME280;20145;43.118;25.694;2023-04-01T07:17:32;98257.53;;;17.61;55.88
33845;BME280;20145;43.118;25.694;2023-04-01T07:20:09;98276.56;;;17.77;55.54
33845;BME280;20145;43.118;25.694;2023-04-01T07:22:42;98274.13;;;17.74;55.77
33845;BME280;20145;43.118;25.694;2023-04-01T07:25:23;98278.59;;;17.72;55.85
33845;BME280;20145;43.118;25.694;2023-04-01T07:27:52;98269.94;;;17.72;56.29
33845;BME280;20145;43.118;25.694;2023-04-01T07:30:21;98266.69;;;17.68;55.83
33845;BME280;20145;43.118;25.694;2023-04-01T07:38:27;98245.84;;;17.38;54.40
33845;BME280;20145;43.118;25.694;2023-04-01T07:44:05;98243.09;;;17.55;52.11
33845;BME280;20145;43.118;25.694;2023-04-01T07:46:45;98245.34;;;17.76;53.57
33845;BME280;20145;43.118;25.694;2023-04-01T07:49:42;98239.50;;;18.01;52.94
33845;BME280;20145;43.118;25.694;2023-04-01T07:54:57;98240.22;;;18.17;54.97
33845;BME280;20145;43.118;25.694;2023-04-01T08:00:15;98219.06;;;18.63;54.79
33845;BME280;20145;43.118;25.694;2023-04-01T08:05:57;98211.53;;;19.64;52.65
33845;BME280;20145;43.118;25.694;2023-04-01T08:14:21;98198.75;;;19.98;44.00
33845;BME280;20145;43.118;25.694;2023-04-01T08:21:58;98178.16;;;20.17;44.45
33845;BME280;20145;43.118;25.694;2023-04-01T08:24:49;98177.03;;;20.21;43.82
33845;BME280;20145;43.118;25.694;2023-04-01T08:32:34;98163.28;;;19.94;42.44
33845;BME280;20145;43.118;25.694;2023-04-01T08:37:32;98174.16;;;20.37;41.74
33845;BME280;20145;43.118;25.694;2023-04-01T08:51:20;98161.22;;;20.95;39.37
33845;BME280;20145;43.118;25.694;2023-04-01T08:56:59;98163.59;;;20.98;40.94
33845;BME280;20145;43.118;25.694;2023-04-01T09:08:23;98172.72;;;20.81;39.98
33845;BME280;20145;43.118;25.694;2023-04-01T09:24:15;98153.69;;;20.90;38.68
33845;BME280;20145;43.118;25.694;2023-04-01T09:29:40;98143.34;;;21.11;37.16
33845;BME280;20145;43.118;25.694;2023-04-01T09:34:57;98140.81;;;20.87;38.37
33845;BME280;20145;43.118;25.694;2023-04-01T09:37:41;98134.88;;;20.72;39.12
33845;BME280;20145;43.118;25.694;2023-04-01T09:40:23;98116.78;;;20.45;39.24
33845;BME280;20145;43.118;25.694;2023-04-01T09:43:22;98121.97;;;20.34;39.85
33845;BME280;20145;43.118;25.694;2023-04-01T09:51:44;98115.44;;;20.64;42.17
33845;BME280;20145;43.118;25.694;2023-04-01T10:13:26;98108.91;;;21.27;40.09
33845;BME280;20145;43.118;25.694;2023-04-01T10:16:15;98102.41;;;21.44;39.89
33845;BME280;20145;43.118;25.694;2023-04-01T10:30:23;98091.22;;;22.19;38.24
33845;BME280;20145;43.118;25.694;2023-04-01T11:11:29;97964.28;;;21.09;41.28
33845;BME280;20145;43.118;25.694;2023-04-01T11:20:02;97957.13;;;21.45;41.02
33845;BME280;20145;43.118;25.694;2023-04-01T11:25:56;97961.97;;;21.50;39.48
33845;BME280;20145;43.118;25.694;2023-04-01T11:34:03;97920.81;;;21.50;37.72
33845;BME280;20145;43.118;25.694;2023-04-01T11:39:15;97929.16;;;21.55;38.38
33845;BME280;20145;43.118;25.694;2023-04-01T11:44:39;97922.91;;;21.68;37.14
33845;BME280;20145;43.118;25.694;2023-04-01T11:47:37;97932.03;;;21.85;36.69
33845;BME280;20145;43.118;25.694;2023-04-01T12:07:27;97902.00;;;21.98;38.96
33845;BME280;20145;43.118;25.694;2023-04-01T12:21:37;97877.59;;;22.08;38.80
33845;BME280;20145;43.118;25.694;2023-04-01T12:30:06;97862.63;;;22.50;39.44
33845;BME280;20145;43.118;25.694;2023-04-01T12:32:52;97860.31;;;22.57;39.59
33845;BME280;20145;43.118;25.694;2023-04-01T12:46:16;97854.16;;;22.77;40.02
33845;BME280;20145;43.118;25.694;2023-04-01T12:59:57;97839.88;;;23.30;41.59
33845;BME280;20145;43.118;25.694;2023-04-01T13:02:34;97839.22;;;23.37;41.73
33845;BME280;20145;43.118;25.694;2023-04-01T13:13:39;97833.94;;;23.47;40.38
33845;BME280;20145;43.118;25.694;2023-04-01T13:18:58;97783.78;;;23.10;41.08
33845;BME280;20145;43.118;25.694;2023-04-01T13:21:46;97805.66;;;22.20;40.86
33845;BME280;20145;43.118;25.694;2023-04-01T13:29:40;97797.56;;;21.16;43.31
33845;BME280;20145;43.118;25.694;2023-04-01T13:32:54;97789.91;;;21.25;43.91
33845;BME280;20145;43.118;25.694;2023-04-01T13:35:26;97795.03;;;20.94;43.68
33845;BME280;20145;43.118;25.694;2023-04-01T13:43:58;97799.13;;;20.64;44.70
33845;BME280;20145;43.118;25.694;2023-04-01T13:46:54;97807.88;;;20.54;45.31
33845;BME280;20145;43.118;25.694;2023-04-01T14:26:01;97791.28;;;18.28;56.96
33845;BME280;20145;43.118;25.694;2023-04-01T14:34:34;97786.72;;;17.81;62.98
33845;BME280;20145;43.118;25.694;2023-04-01T14:42:37;97799.13;;;15.54;73.52
33845;BME280;20145;43.118;25.694;2023-04-01T14:47:51;97833.78;;;14.93;84.16
33845;BME280;20145;43.118;25.694;2023-04-01T14:50:40;97859.03;;;14.42;92.77
33845;BME280;20145;43.118;25.694;2023-04-01T14:58:12;97935.34;;;13.32;100.00
33845;BME280;20145;43.118;25.694;2023-04-01T15:00:52;97964.06;;;13.08;100.00
33845;BME280;20145;43.118;25.694;2023-04-01T15:03:28;97968.72;;;13.00;100.00
33845;BME280;20145;43.118;25.694;2023-04-01T15:09:11;97994.13;;;12.92;100.00
33845;BME280;20145;43.118;25.694;2023-04-01T15:33:13;98111.59;;;11.81;100.00
33845;BME280;20145;43.118;25.694;2023-04-01T15:35:51;98112.38;;;11.83;100.00
33845;BME280;20145;43.118;25.694;2023-04-01T15:41:50;98081.44;;;11.81;100.00
33845;BME280;20145;43.118;25.694;2023-04-01T15:55:25;98023.81;;;12.01;100.00
33845;BME280;20145;43.118;25.694;2023-04-01T16:01:21;98017.69;;;12.04;100.00
33845;BME280;20145;43.118;25.694;2023-04-01T16:03:53;98019.56;;;12.21;100.00
33845;BME280;20145;43.118;25.694;2023-04-01T16:06:41;97994.56;;;12.21;100.00
33845;BME280;20145;43.118;25.694;2023-04-01T16:09:53;98002.19;;;12.45;100.00
33845;BME280;20145;43.118;25.694;2023-04-01T16:20:25;97999.63;;;12.84;100.00
33845;BME280;20145;43.118;25.694;2023-04-01T16:23:11;98006.69;;;13.00;100.00
33845;BME280;20145;43.118;25.694;2023-04-01T16:25:41;98018.81;;;12.99;100.00
33845;BME280;20145;43.118;25.694;2023-04-01T16:28:22;98020.16;;;13.08;100.00
33845;BME280;20145;43.118;25.694;2023-04-01T16:33:49;98057.41;;;13.05;100.00
33845;BME280;20145;43.118;25.694;2023-04-01T16:36:29;98064.72;;;12.95;100.00
33845;BME280;20145;43.118;25.694;2023-04-01T16:39:22;98063.44;;;12.85;100.00
33845;BME280;20145;43.118;25.694;2023-04-01T16:42:02;98082.91;;;12.73;100.00
33845;BME280;20145;43.118;25.694;2023-04-01T16:44:50;98069.53;;;12.64;100.00
33845;BME280;20145;43.118;25.694;2023-04-01T16:47:22;98089.09;;;12.49;100.00
33845;BME280;20145;43.118;25.694;2023-04-01T16:50:00;98090.50;;;12.36;100.00
33845;BME280;20145;43.118;25.694;2023-04-01T16:52:40;98075.19;;;12.31;100.00
33845;BME280;20145;43.118;25.694;2023-04-01T16:55:16;98081.19;;;12.32;100.00
33845;BME280;20145;43.118;25.694;2023-04-01T17:02:49;98097.78;;;12.05;100.00
33845;BME280;20145;43.118;25.694;2023-04-01T17:05:18;98108.28;;;12.01;100.00
33845;BME280;20145;43.118;25.694;2023-04-01T17:07:51;98117.03;;;11.97;100.00
33845;BME280;20145;43.118;25.694;2023-04-01T17:10:47;98105.03;;;11.96;100.00
33845;BME280;20145;43.118;25.694;2023-04-01T17:19:18;98099.63;;;11.78;100.00
33845;BME280;20145;43.118;25.694;2023-04-01T17:27:55;98078.50;;;11.91;100.00
33845;BME280;20145;43.118;25.694;2023-04-01T17:30:35;98076.19;;;11.83;100.00
33845;BME280;20145;43.118;25.694;2023-04-01T17:36:43;98082.31;;;11.58;100.00
33845;BME280;20145;43.118;25.694;2023-04-01T17:44:52;98100.72;;;11.49;100.00
33845;BME280;20145;43.118;25.694;2023-04-01T17:47:29;98106.72;;;11.50;100.00
33845;BME280;20145;43.118;25.694;2023-04-01T17:55:39;98119.75;;;11.70;100.00
33845;BME280;20145;43.118;25.694;2023-04-01T17:58:22;98109.19;;;11.76;100.00
33845;BME280;20145;43.118;25.694;2023-04-01T18:19:27;98150.56;;;12.00;100.00
33845;BME280;20145;43.118;25.694;2023-04-01T18:22:10;98162.69;;;11.98;100.00
33845;BME280;20145;43.118;25.694;2023-04-01T18:24:56;98168.44;;;12.04;100.00
33845;BME280;20145;43.118;25.694;2023-04-01T18:28:06;98170.44;;;11.98;100.00
33845;BME280;20145;43.118;25.694;2023-04-01T18:30:33;98190.41;;;12.16;100.00
33845;BME280;20145;43.118;25.694;2023-04-01T18:33:05;98207.44;;;12.22;100.00
33845;BME280;20145;43.118;25.694;2023-04-01T18:35:54;98222.06;;;12.23;100.00
33845;BME280;20145;43.118;25.694;2023-04-01T18:38:33;98223.72;;;12.24;100.00
33845;BME280;20145;43.118;25.694;2023-04-01T18:43:43;98229.63;;;12.27;100.00
33845;BME280;20145;43.118;25.694;2023-04-01T18:49:21;98237.69;;;12.20;100.00
33845;BME280;20145;43.118;25.694;2023-04-01T18:51:54;98238.88;;;12.11;100.00
33845;BME280;20145;43.118;25.694;2023-04-01T18:57:37;98237.41;;;12.04;100.00
33845;BME280;20145;43.118;25.694;2023-04-01T19:00:20;98232.72;;;11.92;100.00
33845;BME280;20145;43.118;25.694;2023-04-01T19:03:16;98231.72;;;11.94;100.00
33845;BME280;20145;43.118;25.694;2023-04-01T19:05:47;98224.41;;;11.82;100.00
33845;BME280;20145;43.118;25.694;2023-04-01T19:11:07;98229.69;;;11.79;100.00
33845;BME280;20145;43.118;25.694;2023-04-01T19:13:56;98229.56;;;11.82;100.00
33845;BME280;20145;43.118;25.694;2023-04-01T19:19:13;98229.84;;;11.74;100.00
33845;BME280;20145;43.118;25.694;2023-04-01T19:21:57;98237.69;;;11.71;100.00
33845;BME280;20145;43.118;25.694;2023-04-01T19:27:45;98238.59;;;11.70;100.00
33845;BME280;20145;43.118;25.694;2023-04-01T19:35:42;98264.22;;;11.76;100.00
33845;BME280;20145;43.118;25.694;2023-04-01T19:38:31;98271.78;;;11.57;100.00
33845;BME280;20145;43.118;25.694;2023-04-01T19:49:02;98280.34;;;11.58;100.00
33845;BME280;20145;43.118;25.694;2023-04-01T19:51:42;98282.94;;;11.58;100.00
33845;BME280;20145;43.118;25.694;2023-04-01T19:54:37;98288.31;;;11.52;100.00
33845;BME280;20145;43.118;25.694;2023-04-01T20:11:13;98305.09;;;11.65;100.00
33845;BME280;20145;43.118;25.694;2023-04-01T20:16:20;98302.34;;;11.45;100.00
33845;BME280;20145;43.118;25.694;2023-04-01T20:19:00;98318.78;;;11.42;100.00
33845;BME280;20145;43.118;25.694;2023-04-01T20:21:43;98316.34;;;11.37;100.00
33845;BME280;20145;43.118;25.694;2023-04-01T20:26:42;98318.44;;;11.26;100.00
33845;BME280;20145;43.118;25.694;2023-04-01T20:31:59;98330.63;;;11.23;99.71
33845;BME280;20145;43.118;25.694;2023-04-01T20:37:42;98327.72;;;11.05;99.68
33845;BME280;20145;43.118;25.694;2023-04-01T20:40:32;98338.19;;;11.01;97.18
33845;BME280;20145;43.118;25.694;2023-04-01T20:46:20;98340.41;;;10.85;95.73
33845;BME280;20145;43.118;25.694;2023-04-01T20:51:39;98346.78;;;10.73;95.03
33845;BME280;20145;43.118;25.694;2023-04-01T21:00:11;98344.44;;;10.64;92.30
33845;BME280;20145;43.118;25.694;2023-04-01T21:14:07;98344.84;;;10.50;89.62
33845;BME280;20145;43.118;25.694;2023-04-01T21:41:57;98382.34;;;10.31;90.57
33845;BME280;20145;43.118;25.694;2023-04-01T21:44:52;98372.91;;;10.31;88.86
33845;BME280;20145;43.118;25.694;2023-04-01T21:50:55;98374.09;;;10.51;89.78
33845;BME280;20145;43.118;25.694;2023-04-01T22:04:34;98378.69;;;10.69;85.53
33845;BME280;20145;43.118;25.694;2023-04-01T22:07:14;98368.38;;;10.69;86.50
33845;BME280;20145;43.118;25.694;2023-04-01T22:12:35;98384.53;;;10.76;84.14
33845;BME280;20145;43.118;25.694;2023-04-01T22:15:25;98383.53;;;10.81;83.67
33845;BME280;20145;43.118;25.694;2023-04-01T22:18:13;98387.59;;;10.88;84.08
33845;BME280;20145;43.118;25.694;2023-04-01T22:20:53;98389.97;;;10.94;82.16
33845;BME280;20145;43.118;25.694;2023-04-01T22:23:29;98393.38;;;10.97;82.13
33845;BME280;20145;43.118;25.694;2023-04-01T22:28:50;98396.09;;;10.92;82.85
33845;BME280;20145;43.118;25.694;2023-04-01T22:31:23;98402.81;;;10.98;81.54
33845;BME280;20145;43.118;25.694;2023-04-01T22:34:16;98401.09;;;10.97;83.09
33845;BME280;20145;43.118;25.694;2023-04-01T22:39:50;98400.16;;;10.99;83.91
33845;BME280;20145;43.118;25.694;2023-04-01T22:45:27;98412.38;;;10.94;85.03
33845;BME280;20145;43.118;25.694;2023-04-01T22:48:18;98402.94;;;10.93;86.56
33845;BME280;20145;43.118;25.694;2023-04-01T22:51:07;98411.44;;;10.97;85.96
33845;BME280;20145;43.118;25.694;2023-04-01T22:56:14;98393.69;;;11.14;86.01
33845;BME280;20145;43.118;25.694;2023-04-01T23:01:29;98398.16;;;11.09;85.51
33845;BME280;20145;43.118;25.694;2023-04-01T23:03:56;98398.78;;;11.17;86.55
33845;BME280;20145;43.118;25.694;2023-04-01T23:06:31;98383.47;;;11.11;86.29
33845;BME280;20145;43.118;25.694;2023-04-01T23:11:49;98389.50;;;11.38;86.69
33845;BME280;20145;43.118;25.694;2023-04-01T23:17:18;98386.47;;;11.25;85.29
33845;BME280;20145;43.118;25.694;2023-04-01T23:23:29;98388.03;;;11.31;85.25
33845;BME280;20145;43.118;25.694;2023-04-01T23:26:17;98366.69;;;11.24;85.35
33845;BME280;20145;43.118;25.694;2023-04-01T23:28:44;98390.69;;;11.28;84.70
33845;BME280;20145;43.118;25.694;2023-04-01T23:34:01;98390.75;;;11.26;83.67
33845;BME280;20145;43.118;25.694;2023-04-01T23:36:29;98385.63;;;11.25;83.21